• Join FlightAware (Why Join?)
  • Login
  • US Flag 
11:42PM EDT


 

Airport Tracker/Info


-or-


 

Live Flight TrackerFlight Track Log ✈ N201LH ✈ 02-Sep-2013 ✈ KLUK - KHYX

Flight Track Log - Related Links

Times and Time Zones

All times are in EDT time to prevent confusion due to time zone crossing. See the N201LH flight status page for this flight to view local times or setup timezone preferences in your user account.

Time Position Orientation Groundspeed Altitude Reporting Facility
EDT Latitude Longitude Course Direction KTS MPH feet Rate Location/Type
05:25PM 39.1167 -84.4000 360° North 104 120 1,000  Level Cincinnati TRACON
05:25PM 39.1333 -84.4000 360° North 89 102 1,300 660 Climbing Cincinnati TRACON
05:26PM 39.1500 -84.3833 38° Northeast 90 104 2,000 660 Climbing Cincinnati TRACON
05:27PM 39.1667 -84.3833 360° North 90 104 2,600 600 Climbing Cincinnati TRACON
05:28PM 39.1950 -84.3900 350° North 110 127 3,100 480 Climbing Indianapolis Center
05:29PM 39.2200 -84.3878 North 92 106 3,600 480 Climbing Indianapolis Center
05:30PM 39.2461 -84.3836 North 93 107 4,100 480 Climbing Indianapolis Center
05:31PM 39.2731 -84.3831 North 94 108 4,700 540 Climbing Indianapolis Center
05:32PM 39.3000 -84.3800 North 95 109 5,300 540 Climbing Indianapolis Center
05:33PM 39.3211 -84.3778 North 100 115 5,700 480 Climbing Indianapolis Center
05:34PM 39.3406 -84.3731 11° North 102 117 6,000 360 Climbing Indianapolis Center
05:34PM 39.3550 -84.3725 North 99 114 6,200 540 Climbing Indianapolis Center
05:35PM 39.3819 -84.3692 North 98 113 6,900 540 Climbing Indianapolis Center
05:36PM 39.4136 -84.3653 North 95 109 7,400 480 Climbing Indianapolis Center
05:37PM 39.4431 -84.3544 16° North 104 120 7,900 240 Climbing Indianapolis Center
05:38PM 39.4747 -84.3458 12° North 112 129 8,000  Climbing Indianapolis Center
05:39PM 39.5114 -84.3472 358° North 125 144 8,000  Level Indianapolis Center
05:40PM 39.5503 -84.3417 North 135 155 8,000  Level Indianapolis Center
05:41PM 39.5889 -84.3389 North 139 160 8,000  Level Indianapolis Center
05:43PM 39.6292 -84.3356 North 141 162 8,000  Level Indianapolis Center
05:44PM 39.6881 -84.3325 North 152 175 8,000  Level Indianapolis Center
05:45PM 39.7214 -84.3275 North 151 174 8,000  Level Indianapolis Center
05:46PM 39.7619 -84.3250 North 149 171 8,000  Level Indianapolis Center
05:47PM 39.8114 -84.3219 North 140 161 8,000  Level Indianapolis Center
05:48PM 39.8411 -84.3189 North 142 163 8,000  Level Indianapolis Center
05:49PM 39.8803 -84.3153 North 142 163 8,000  Level Indianapolis Center
05:50PM 39.9203 -84.3119 North 142 163 8,000  Level Indianapolis Center
05:51PM 39.9608 -84.3097 North 145 167 8,000  Level Indianapolis Center
05:52PM 40.0014 -84.3061 North 145 167 8,000  Level Indianapolis Center
05:53PM 40.0497 -84.3028 North 144 166 8,000  Level Indianapolis Center
05:54PM 40.0903 -84.2992 North 146 168 8,000  Level Indianapolis Center
05:55PM 40.1317 -84.2942 North 147 169 8,000  Level Indianapolis Center
05:56PM 40.1722 -84.2917 North 147 169 8,000  Level Indianapolis Center
05:57PM 40.2128 -84.2881 North 146 168 8,000  Level Indianapolis Center
05:58PM 40.2572 -84.2847 North 144 166 8,000  Level Indianapolis Center
05:59PM 40.2919 -84.2825 North 143 165 8,000  Level Indianapolis Center
06:00PM 40.3358 -84.2797 North 144 166 8,000  Level Indianapolis Center
06:01PM 40.3803 -84.2750 North 144 166 8,000  Level Indianapolis Center
06:02PM 40.4225 -84.2714 North 148 170 8,000  Level Indianapolis Center
06:03PM 40.4633 -84.2689 North 148 170 8,000  Level Indianapolis Center
06:04PM 40.5039 -84.2650 North 147 169 8,000  Level Indianapolis Center
06:05PM 40.5442 -84.2631 North 145 167 8,000  Level Indianapolis Center
06:06PM 40.5847 -84.2592 North 146 168 8,000  Level Indianapolis Center
06:07PM 40.6253 -84.2536 North 146 168 8,000  Level Indianapolis Center
06:08PM 40.6742 -84.2503 North 146 168 8,000  Level Indianapolis Center
06:09PM 40.7144 -84.2467 North 146 168 8,000  Level Indianapolis Center
06:10PM 40.7536 -84.2428 North 143 165 8,000  Level Indianapolis Center
06:11PM 40.7947 -84.2403 North 145 167 8,000  Level Indianapolis Center
06:12PM 40.8353 -84.2361 North 146 168 8,000  Level Indianapolis Center
06:13PM 40.8750 -84.2328 North 144 166 8,000  Level Indianapolis Center
06:14PM 40.9144 -84.2311 North 143 165 8,000  Level Indianapolis Center
06:15PM 40.9631 -84.2267 North 145 167 8,000  Level Indianapolis Center
06:17PM 41.0033 -84.2231 North 145 167 8,000  Level Indianapolis Center
06:18PM 41.0422 -84.2197 North 142 163 8,000  Level Indianapolis Center
06:19PM 41.0806 -84.2164 North 140 161 8,100  Climbing Indianapolis Center
06:20PM 41.1211 -84.2133 North 141 162 8,100 -60 Level Indianapolis Center
06:21PM 41.1606 -84.2103 North 140 161 8,000 -60 Descending Indianapolis Center
06:22PM 41.2008 -84.2061 North 142 163 8,000  Level Indianapolis Center
06:23PM 41.2400 -84.2036 North 141 162 8,000  Level Indianapolis Center
06:25PM 41.3110 -84.1946 North  Level FlightAware Approximate
06:32PM 41.5848 -84.1671 North  Level FlightAware Approximate
06:33PM 41.6239 -84.1637 North  Level FlightAware Approximate
06:34PM 41.6630 -84.1602 North  Level FlightAware Approximate
06:35PM 41.7022 -84.1568 North  Level FlightAware Approximate
06:35PM 41.7119 -84.1689 North 140 161 8,000  Level Cleveland Center
06:36PM 41.7413 -84.1533 North  Level FlightAware Approximate
06:36PM 41.7581 -84.1658 North 138 159 8,000  Level Cleveland Center
06:37PM 41.7804 -84.1499 North  Level FlightAware Approximate
06:37PM 41.7978 -84.1597 North 139 160 8,000  Level Cleveland Center
06:38PM 41.8196 -84.1464 North  Level FlightAware Approximate
06:38PM 41.8311 -84.1589 North 138 159 8,000  Level Cleveland Center
06:39PM 41.8587 -84.1429 North  Level FlightAware Approximate
06:39PM 41.8750 -84.1556 North 138 159 8,000  Level Cleveland Center
06:40PM 41.8979 -84.1395 North  Level FlightAware Approximate
06:40PM 41.9106 -84.1522 North 139 160 8,000  Level Cleveland Center
06:41PM 41.9503 -84.1517 North 137 158 8,000  Level Cleveland Center
06:42PM 41.9900 -84.1453 North 140 161 8,000  Level Cleveland Center
06:43PM 42.0322 -84.1336 12° North 142 163 8,000  Level Cleveland Center
06:44PM 42.0697 -84.1303 North 138 159 8,000  Level Cleveland Center
06:45PM 42.1097 -84.1214 North 136 157 8,000 -60 Level Cleveland Center
06:46PM 42.1517 -84.1125 North 137 158 7,900  Descending Cleveland Center
06:47PM 42.1831 -84.1058 North 135 155 8,000  Climbing Cleveland Center
06:48PM 42.2250 -84.0969 North 135 155 8,000  Level Cleveland Center
06:49PM 42.2628 -84.0906 North 139 160 8,000  Level Cleveland Center
06:50PM 42.3028 -84.0842 North 139 160 8,000  Level Cleveland Center
06:51PM 42.3447 -84.0725 12° North 139 160 8,000  Level Cleveland Center
06:52PM 42.3822 -84.0689 North 138 159 8,000  Level Cleveland Center
06:53PM 42.4222 -84.0600 North 139 160 8,000  Level Cleveland Center
06:55PM 42.4705 -84.0489 10° North  Level FlightAware Approximate
07:02PM 42.7310 -83.9932 North  Level FlightAware Approximate
07:03PM 42.7685 -83.9878 North  Level FlightAware Approximate
07:04PM 42.8059 -83.9822 North  Level FlightAware Approximate
07:05PM 42.8432 -83.9747 North  Level FlightAware Approximate
07:06PM 42.8804 -83.9673 North  Level FlightAware Approximate
07:07PM 42.9177 -83.9598 North  Level FlightAware Approximate
07:08PM 42.9550 -83.9523 North  Level FlightAware Approximate
07:09PM 42.9920 -83.9431 11° North  Level FlightAware Approximate
07:10PM 43.0290 -83.9330 11° North  Level FlightAware Approximate
07:11PM 43.0659 -83.9230 11° North  Level FlightAware Approximate
07:12PM 43.1028 -83.9129 11° North  Level FlightAware Approximate
07:13PM 43.1398 -83.9028 11° North  Level FlightAware Approximate
07:14PM 43.1772 -83.9000 North  Level FlightAware Approximate
07:15PM 43.2149 -83.9000 North  Level FlightAware Approximate
07:16PM 43.2522 -83.8929 North  Level FlightAware Approximate
07:17PM 43.2895 -83.8855 North  Level FlightAware Approximate
07:18PM 43.3268 -83.8780 North  Level FlightAware Approximate
07:19PM 43.3640 -83.8705 North  Level FlightAware Approximate
07:20PM 43.4010 -83.8608 14° North  Level FlightAware Approximate
07:21PM 43.4333 -83.8500 14° North  Level FlightAware Approximate